Time;durP1;ratioP1;P1;durP2;ratioP2;P2;SDS_P1;SDS_P2;PMS_P1;PMS_P2;Temp;Humidity;BMP_temperature;BMP_pressure;BME280_temperature;BME280_humidity;BME280_pressure;Samples;Min_cycle;Max_cycle;Signal;HPM_P1;HPM_P2
2023/08/20 00:01:30;;;;;;;5.80;2.30;;;;;;;-148.15;100.00;61821.78;4972655;28;20027;-94
2023/08/20 00:03:56;;;;;;;7.60;3.10;;;;;;;-148.15;100.00;61821.78;4974180;28;20034;-92
2023/08/20 00:06:22;;;;;;;5.07;2.93;;;;;;;-148.15;100.00;61821.78;4972244;28;20050;-94
2023/08/20 00:08:48;;;;;;;8.13;2.90;;;;;;;-148.15;100.00;61821.78;4973355;28;20097;-94
2023/08/20 00:11:13;;;;;;;6.22;2.85;;;;;;;-148.15;100.00;61821.78;4971613;28;20031;-94
2023/08/20 00:13:39;;;;;;;12.83;2.70;;;;;;;-148.15;100.00;61821.78;4973217;28;20031;-94
2023/08/20 00:16:05;;;;;;;7.18;2.85;;;;;;;-148.15;100.00;61821.78;4973302;28;20023;-94
2023/08/20 00:18:31;;;;;;;6.70;2.53;;;;;;;-148.15;100.00;61821.78;4973031;28;20077;-95
2023/08/20 00:20:57;;;;;;;10.05;3.08;;;;;;;-148.15;100.00;61821.78;4973393;28;20158;-95
2023/08/20 00:23:22;;;;;;;9.98;2.53;;;;;;;-148.15;100.00;61821.78;4974583;28;20051;-94
2023/08/20 00:25:48;;;;;;;5.80;2.50;;;;;;;-148.15;100.00;61821.78;4974341;28;20551;-95
2023/08/20 00:28:13;;;;;;;9.38;2.78;;;;;;;-148.15;100.00;61821.78;4971818;28;20038;-93
2023/08/20 00:30:39;;;;;;;4.57;2.07;;;;;;;-148.15;100.00;61821.78;4955465;28;20058;-94
2023/08/20 00:33:04;;;;;;;7.93;2.40;;;;;;;-148.15;100.00;61821.78;4975631;28;20118;-94
2023/08/20 00:35:29;;;;;;;5.67;2.67;;;;;;;-148.15;100.00;61821.78;4981591;28;20082;-93
2023/08/20 00:37:55;;;;;;;8.07;2.35;;;;;;;-148.15;100.00;61821.78;4989628;28;20125;-94
2023/08/20 00:40:20;;;;;;;4.77;2.57;;;;;;;-148.15;100.00;61821.78;4975729;28;20035;-94
2023/08/20 00:42:45;;;;;;;9.03;2.73;;;;;;;-148.15;100.00;61821.78;4993886;28;20031;-93
2023/08/20 00:45:12;;;;;;;6.87;2.70;;;;;;;-148.15;100.00;61821.78;4982849;28;20088;-95
2023/08/20 00:47:38;;;;;;;6.80;3.03;;;;;;;-148.15;100.00;61821.78;4976145;28;20038;-93
2023/08/20 00:50:06;;;;;;;7.30;2.60;;;;;;;-148.15;100.00;61821.78;4976959;28;20093;-94
2023/08/20 00:52:32;;;;;;;4.82;2.47;;;;;;;-148.15;100.00;61821.78;4960072;28;20543;-94
2023/08/20 00:54:58;;;;;;;6.47;2.85;;;;;;;-148.15;100.00;61821.78;4977655;28;20382;-95
2023/08/20 00:57:23;;;;;;;4.90;2.60;;;;;;;-148.15;100.00;61821.78;4977242;28;20026;-95
2023/08/20 00:59:50;;;;;;;5.55;2.47;;;;;;;-148.15;100.00;61821.78;4977528;28;20073;-94
2023/08/20 01:02:17;;;;;;;6.50;2.97;;;;;;;-148.15;100.00;61821.78;4976734;28;20081;-94
2023/08/20 01:04:42;;;;;;;8.23;2.80;;;;;;;-148.15;100.00;61821.78;4975649;28;20294;-94
2023/08/20 01:07:46;;;;;;;6.15;3.05;;;;;;;-148.15;100.00;61821.78;4976280;28;20505;-94
2023/08/20 01:11:01;;;;;;;6.38;3.35;;;;;;;-148.15;100.00;61821.78;4897567;29;20040;-94
2023/08/20 01:13:26;;;;;;;8.03;2.53;;;;;;;-148.15;100.00;61821.78;4976962;28;20403;-93
2023/08/20 01:15:51;;;;;;;8.43;2.90;;;;;;;-148.15;100.00;61821.78;4975887;28;20278;-93
2023/08/20 01:18:17;;;;;;;7.13;2.60;;;;;;;-148.15;100.00;61821.78;4976703;28;20034;-94
2023/08/20 01:20:52;;;;;;;12.73;2.93;;;;;;;-148.15;100.00;61821.78;4976292;28;20023;-94
2023/08/20 01:23:42;;;;;;;8.10;2.80;;;;;;;-148.15;100.00;61821.78;4975450;28;20113;-94
2023/08/20 01:26:26;;;;;;;6.13;2.83;;;;;;;-148.15;100.00;61821.78;4972115;28;20033;-95
2023/08/20 01:28:52;;;;;;;5.38;2.38;;;;;;;-148.15;100.00;61821.78;4975385;28;20041;-94
2023/08/20 01:31:20;;;;;;;11.83;2.70;;;;;;;-148.15;100.00;61821.78;4976326;28;20047;-94
2023/08/20 01:33:45;;;;;;;8.15;2.60;;;;;;;-148.15;100.00;61821.78;4976636;28;20027;-94
2023/08/20 01:36:11;;;;;;;6.53;2.70;;;;;;;-148.15;100.00;61821.78;4976746;28;20031;-94
2023/08/20 01:38:37;;;;;;;9.23;2.73;;;;;;;-148.15;100.00;61821.78;4976150;28;20482;-95
2023/08/20 01:41:03;;;;;;;7.28;2.15;;;;;;;-148.15;100.00;61821.78;4977016;28;20449;-94
2023/08/20 01:43:29;;;;;;;7.75;2.70;;;;;;;-148.15;100.00;61821.78;4977177;28;20057;-94
2023/08/20 01:45:55;;;;;;;7.32;2.70;;;;;;;-148.15;100.00;61821.78;4977066;28;20031;-94
2023/08/20 01:48:20;;;;;;;7.73;2.97;;;;;;;-148.15;100.00;61821.78;4978129;28;20122;-94
2023/08/20 01:50:45;;;;;;;7.63;2.60;;;;;;;-148.15;100.00;61821.78;4977916;28;20062;-94
2023/08/20 01:53:11;;;;;;;4.23;2.50;;;;;;;-148.15;100.00;61821.78;4960870;28;20035;-94
2023/08/20 01:55:37;;;;;;;6.80;2.60;;;;;;;-148.15;100.00;61821.78;4999586;28;20046;-94
2023/08/20 01:58:02;;;;;;;9.13;2.50;;;;;;;-148.15;100.00;61821.78;4999620;28;20031;-95
2023/08/20 02:00:28;;;;;;;5.70;2.72;;;;;;;-148.15;100.00;61821.78;4999491;28;20026;-94
2023/08/20 02:02:54;;;;;;;6.63;2.50;;;;;;;-148.15;100.00;61821.78;5000282;28;20015;-94
2023/08/20 02:05:19;;;;;;;6.80;2.67;;;;;;;-148.15;100.00;61821.78;4999975;28;20029;-94
2023/08/20 02:07:45;;;;;;;5.53;2.27;;;;;;;-148.15;100.00;61821.78;4998709;28;20015;-94
2023/08/20 02:10:10;;;;;;;6.82;2.40;;;;;;;-148.15;100.00;61821.78;4998528;28;20023;-93
2023/08/20 02:12:35;;;;;;;5.70;2.87;;;;;;;-148.15;100.00;61821.78;4976915;28;20063;-94
2023/08/20 02:15:02;;;;;;;5.53;2.60;;;;;;;-148.15;100.00;61821.78;4976353;28;20037;-93
2023/08/20 02:17:27;;;;;;;9.05;2.60;;;;;;;-148.15;100.00;61821.78;4980056;28;20049;-95
2023/08/20 02:19:52;;;;;;;5.87;2.07;;;;;;;-148.15;100.00;61821.78;4976013;28;20157;-94
2023/08/20 02:22:20;;;;;;;8.50;2.50;;;;;;;-148.15;100.00;61821.78;4975436;28;20034;-94
2023/08/20 02:24:46;;;;;;;6.65;2.33;;;;;;;-148.15;100.00;61821.78;4975069;28;20026;-94
2023/08/20 02:27:11;;;;;;;8.70;2.73;;;;;;;-148.15;100.00;61821.78;4975582;28;20034;-94
2023/08/20 02:29:36;;;;;;;8.35;2.40;;;;;;;-148.15;100.00;61821.78;4975871;28;20516;-94
2023/08/20 02:32:02;;;;;;;7.83;2.10;;;;;;;-148.15;100.00;61821.78;4975588;28;20019;-94
2023/08/20 02:34:27;;;;;;;5.43;2.80;;;;;;;-148.15;100.00;61821.78;4976100;28;20023;-94
2023/08/20 02:36:52;;;;;;;6.13;2.30;;;;;;;-148.15;100.00;61821.78;4958537;28;20027;-95
2023/08/20 02:39:18;;;;;;;7.83;2.60;;;;;;;-148.15;100.00;61821.78;4958457;29;20058;-94
2023/08/20 02:41:43;;;;;;;8.73;2.50;;;;;;;-148.15;100.00;61821.78;4981319;28;20011;-94
2023/08/20 02:44:09;;;;;;;9.30;2.70;;;;;;;-148.15;100.00;61821.78;4999185;28;20023;-94
2023/08/20 02:46:34;;;;;;;7.00;2.20;;;;;;;-148.15;100.00;61821.78;4997154;28;20038;-95
2023/08/20 02:49:00;;;;;;;6.50;2.50;;;;;;;-148.15;100.00;61821.78;4998687;28;20023;-94
2023/08/20 02:51:25;;;;;;;6.10;2.70;;;;;;;-148.15;100.00;61821.78;4998895;28;20044;-94
2023/08/20 02:53:51;;;;;;;7.40;2.67;;;;;;;-148.15;100.00;61821.78;4998360;28;20026;-95
2023/08/20 02:56:16;;;;;;;7.20;2.50;;;;;;;-148.15;100.00;61821.78;4992947;28;20058;-94
2023/08/20 02:58:41;;;;;;;9.97;2.90;;;;;;;-148.15;100.00;61821.78;4975577;28;20341;-95
2023/08/20 03:01:07;;;;;;;8.17;2.60;;;;;;;-148.15;100.00;61821.78;4973678;28;20122;-94
2023/08/20 03:03:32;;;;;;;5.23;2.63;;;;;;;-148.15;100.00;61821.78;4974313;28;20035;-94
2023/08/20 03:05:57;;;;;;;5.97;2.53;;;;;;;-148.15;100.00;61821.78;4974080;28;20043;-93
2023/08/20 03:08:23;;;;;;;8.93;2.83;;;;;;;-148.15;100.00;61821.78;4968523;28;20081;-96
2023/08/20 03:10:48;;;;;;;7.40;2.83;;;;;;;-148.15;100.00;61821.78;4982418;28;20285;-95
2023/08/20 03:13:14;;;;;;;8.13;3.03;;;;;;;-148.15;100.00;61821.78;4991897;28;20038;-94
2023/08/20 03:15:39;;;;;;;7.40;2.73;;;;;;;-148.15;100.00;61821.78;4968999;28;20030;-94
2023/08/20 03:18:05;;;;;;;5.22;2.45;;;;;;;-148.15;100.00;61821.78;4980667;28;20027;-94
2023/08/20 03:20:31;;;;;;;7.77;2.57;;;;;;;-148.15;100.00;61821.78;4996610;28;20114;-95
2023/08/20 03:22:56;;;;;;;6.23;2.60;;;;;;;-148.15;100.00;61821.78;4976513;28;20286;-95
2023/08/20 03:25:22;;;;;;;5.10;2.90;;;;;;;-148.15;100.00;61821.78;4976128;28;20037;-94
2023/08/20 03:27:47;;;;;;;7.13;2.80;;;;;;;-148.15;100.00;61821.78;4974027;28;20027;-94
2023/08/20 03:30:13;;;;;;;5.87;2.70;;;;;;;-148.15;100.00;61821.78;4975176;28;20510;-94
2023/08/20 03:32:39;;;;;;;6.40;2.60;;;;;;;-148.15;100.00;61821.78;4975551;28;20155;-94
2023/08/20 03:35:05;;;;;;;7.10;2.85;;;;;;;-148.15;100.00;61821.78;4978753;28;20038;-94
2023/08/20 03:37:30;;;;;;;5.55;2.60;;;;;;;-148.15;100.00;61821.78;4983627;28;20023;-95
2023/08/20 03:39:55;;;;;;;5.33;2.73;;;;;;;-148.15;100.00;61821.78;4983848;28;20035;-94
2023/08/20 03:42:21;;;;;;;5.40;2.70;;;;;;;-148.15;100.00;61821.78;4985412;28;20023;-93
2023/08/20 03:44:46;;;;;;;8.13;2.80;;;;;;;-148.15;100.00;61821.78;4985727;28;20031;-92
2023/08/20 03:47:12;;;;;;;7.70;2.65;;;;;;;-148.15;100.00;61821.78;4985784;28;20042;-94
2023/08/20 03:49:37;;;;;;;8.47;2.97;;;;;;;-148.15;100.00;61821.78;4963164;28;20043;-94
2023/08/20 03:52:03;;;;;;;8.57;2.87;;;;;;;-148.15;100.00;61821.78;4980544;28;20031;-95
2023/08/20 03:54:29;;;;;;;7.50;3.08;;;;;;;-148.15;100.00;61821.78;4977176;28;20541;-95
2023/08/20 03:56:55;;;;;;;6.38;2.83;;;;;;;-148.15;100.00;61821.78;4975655;28;20228;-96
2023/08/20 03:59:20;;;;;;;6.10;3.03;;;;;;;-148.15;100.00;61821.78;4977087;28;20058;-94
2023/08/20 04:01:45;;;;;;;6.00;3.10;;;;;;;-148.15;100.00;61821.78;4974889;28;20037;-94
2023/08/20 04:04:11;;;;;;;8.90;3.53;;;;;;;-148.15;100.00;61821.78;4975873;28;20034;-95
2023/08/20 04:06:36;;;;;;;7.13;3.30;;;;;;;-148.15;100.00;61821.78;4975646;28;20033;-94
2023/08/20 04:09:02;;;;;;;8.10;3.47;;;;;;;-148.15;100.00;61821.78;4974891;28;20094;-95
2023/08/20 04:11:27;;;;;;;5.35;3.80;;;;;;;-148.15;100.00;61821.78;4976282;28;20410;-95
2023/08/20 04:13:53;;;;;;;7.20;3.60;;;;;;;-148.15;100.00;61821.78;4977422;28;20091;-95
2023/08/20 04:16:18;;;;;;;9.60;4.00;;;;;;;-148.15;100.00;61821.78;4975891;28;20110;-96
2023/08/20 04:18:43;;;;;;;7.90;3.80;;;;;;;-148.15;100.00;61821.78;4977936;28;20049;-95
2023/08/20 04:21:09;;;;;;;7.60;3.83;;;;;;;-148.15;100.00;61821.78;4979441;28;20054;-96
2023/08/20 04:23:34;;;;;;;8.43;3.87;;;;;;;-148.15;100.00;61821.78;4976229;28;20035;-94
2023/08/20 04:25:59;;;;;;;8.97;4.07;;;;;;;-148.15;100.00;61821.78;4976494;28;20031;-96
2023/08/20 04:28:25;;;;;;;7.27;3.70;;;;;;;-148.15;100.00;61821.78;4976463;28;20584;-95
2023/08/20 04:30:54;;;;;;;8.77;3.60;;;;;;;-148.15;100.00;61821.78;4977224;28;20038;-95
2023/08/20 04:33:19;;;;;;;8.13;3.43;;;;;;;-148.15;100.00;61821.78;4995411;28;20278;-95
2023/08/20 04:35:45;;;;;;;5.22;3.00;;;;;;;-148.15;100.00;61821.78;4976268;28;20066;-95
2023/08/20 04:38:10;;;;;;;7.57;3.17;;;;;;;-148.15;100.00;61821.78;4984295;28;20023;-94
2023/08/20 04:40:35;;;;;;;7.13;3.90;;;;;;;-148.15;100.00;61821.78;4990371;28;20445;-94
2023/08/20 04:43:01;;;;;;;8.57;4.47;;;;;;;-148.15;100.00;61821.78;4984245;28;20027;-95
2023/08/20 04:45:26;;;;;;;7.65;3.80;;;;;;;-148.15;100.00;61821.78;4987372;28;20031;-95
2023/08/20 04:47:51;;;;;;;6.37;4.30;;;;;;;-148.15;100.00;61821.78;4986778;28;20019;-96
2023/08/20 04:50:17;;;;;;;8.13;4.40;;;;;;;-148.15;100.00;61821.78;4985917;28;20053;-96
2023/08/20 04:52:42;;;;;;;9.93;4.90;;;;;;;-148.15;100.00;61821.78;4977927;28;20063;-96
2023/08/20 04:55:08;;;;;;;9.10;5.23;;;;;;;-148.15;100.00;61821.78;4977488;28;20116;-96
2023/08/20 04:57:33;;;;;;;9.75;5.10;;;;;;;-148.15;100.00;61821.78;4962975;28;20023;-92
2023/08/20 04:59:59;;;;;;;12.90;6.03;;;;;;;-148.15;100.00;61821.78;4970110;28;20098;-88
2023/08/20 05:02:24;;;;;;;8.73;5.53;;;;;;;-148.15;100.00;61821.78;4970423;28;20087;-88
2023/08/20 05:04:50;;;;;;;11.23;6.17;;;;;;;-148.15;100.00;61821.78;4969364;28;20022;-88
2023/08/20 05:07:15;;;;;;;11.47;6.50;;;;;;;-148.15;100.00;61821.78;4969598;28;20027;-86
2023/08/20 05:09:40;;;;;;;15.45;7.15;;;;;;;-148.15;100.00;61821.78;4978230;28;20066;-96
2023/08/20 05:12:06;;;;;;;12.80;8.10;;;;;;;-148.15;100.00;61821.78;4979841;28;20099;-96
2023/08/20 05:14:32;;;;;;;19.05;9.57;;;;;;;-148.15;100.00;61821.78;4981918;28;20030;-96
2023/08/20 05:16:57;;;;;;;16.90;9.90;;;;;;;-148.15;100.00;61821.78;4958159;28;20033;-96
2023/08/20 05:19:22;;;;;;;17.50;9.50;;;;;;;-148.15;100.00;61821.78;4980032;28;20467;-96
2023/08/20 05:21:48;;;;;;;13.70;10.63;;;;;;;-148.15;100.00;61821.78;4957637;28;20037;-87
2023/08/20 05:24:13;;;;;;;12.67;8.70;;;;;;;-148.15;100.00;61821.78;4970350;28;20117;-89
2023/08/20 05:26:38;;;;;;;13.10;8.80;;;;;;;-148.15;100.00;61821.78;4952802;28;20089;-88
2023/08/20 05:29:04;;;;;;;14.60;8.98;;;;;;;-148.15;100.00;61821.78;4970335;28;20031;-90
2023/08/20 05:31:29;;;;;;;13.37;9.33;;;;;;;-148.15;100.00;61821.78;4973509;28;20027;-89
2023/08/20 05:33:54;;;;;;;15.10;10.23;;;;;;;-148.15;100.00;61821.78;4974070;28;20121;-89
2023/08/20 05:36:20;;;;;;;18.87;11.13;;;;;;;-148.15;100.00;61821.78;4974091;28;20105;-90
2023/08/20 05:38:45;;;;;;;16.90;10.40;;;;;;;-148.15;100.00;61821.78;4974833;28;20027;-90
2023/08/20 05:41:10;;;;;;;17.40;10.27;;;;;;;-148.15;100.00;61821.78;4974402;28;20372;-89
2023/08/20 05:43:36;;;;;;;11.97;8.10;;;;;;;-148.15;100.00;61821.78;4974112;28;20026;-89
2023/08/20 05:46:02;;;;;;;14.13;7.17;;;;;;;-148.15;100.00;61821.78;4974201;28;20064;-90
2023/08/20 05:48:27;;;;;;;10.23;6.53;;;;;;;-148.15;100.00;61821.78;4974648;28;20394;-91
2023/08/20 05:50:53;;;;;;;8.53;5.20;;;;;;;-148.15;100.00;61821.78;4979748;28;20593;-90
2023/08/20 05:53:18;;;;;;;8.48;5.20;;;;;;;-148.15;100.00;61821.78;4986074;28;20128;-88
2023/08/20 05:55:43;;;;;;;9.67;4.73;;;;;;;-148.15;100.00;61821.78;4972041;28;20125;-89
2023/08/20 05:58:09;;;;;;;7.80;4.37;;;;;;;-148.15;100.00;61821.78;4981624;28;20066;-87
2023/08/20 06:00:34;;;;;;;9.73;4.43;;;;;;;-148.15;100.00;61821.78;4976612;28;20019;-90
2023/08/20 06:02:59;;;;;;;8.27;4.27;;;;;;;-148.15;100.00;61821.78;4954944;28;20087;-90
2023/08/20 06:05:25;;;;;;;13.90;4.50;;;;;;;-148.15;100.00;61821.78;4974555;28;20042;-89
2023/08/20 06:07:50;;;;;;;10.80;4.57;;;;;;;-148.15;100.00;61821.78;4972548;28;20497;-90
2023/08/20 06:10:16;;;;;;;11.77;3.97;;;;;;;-148.15;100.00;61821.78;4973189;28;20106;-91
2023/08/20 06:12:43;;;;;;;10.80;4.78;;;;;;;-148.15;100.00;61821.78;4973521;28;20018;-89
2023/08/20 06:15:08;;;;;;;10.17;3.97;;;;;;;-148.15;100.00;61821.78;4974248;28;20122;-89
2023/08/20 06:17:34;;;;;;;8.37;4.00;;;;;;;-148.15;100.00;61821.78;4952594;28;20385;-88
2023/08/20 06:19:59;;;;;;;12.47;4.20;;;;;;;-148.15;100.00;61821.78;4974347;28;20027;-90
2023/08/20 06:22:24;;;;;;;7.57;4.10;;;;;;;-148.15;100.00;61821.78;4973955;28;20037;-89
2023/08/20 06:24:50;;;;;;;10.27;3.70;;;;;;;-148.15;100.00;61821.78;4973864;28;20043;-89
2023/08/20 06:27:15;;;;;;;8.70;4.57;;;;;;;-148.15;100.00;61821.78;4973161;28;20031;-88
2023/08/20 06:29:40;;;;;;;8.70;4.10;;;;;;;-148.15;100.00;61821.78;4973778;28;20042;-88
2023/08/20 06:32:06;;;;;;;10.17;4.83;;;;;;;-148.15;100.00;61821.78;4972242;28;20155;-93
2023/08/20 06:34:34;;;;;;;12.48;4.57;;;;;;;-148.15;100.00;61821.78;4971346;28;20122;-89
2023/08/20 06:36:59;;;;;;;15.20;4.43;;;;;;;-148.15;100.00;61821.78;4961296;28;20035;-90
2023/08/20 06:39:24;;;;;;;13.37;4.50;;;;;;;-148.15;100.00;61821.78;4973749;28;20274;-89
2023/08/20 06:41:50;;;;;;;9.07;4.30;;;;;;;-148.15;100.00;61821.78;4973268;28;20034;-90
2023/08/20 06:44:15;;;;;;;13.87;4.50;;;;;;;-148.15;100.00;61821.78;4972596;28;20398;-89
2023/08/20 06:46:40;;;;;;;13.90;4.77;;;;;;;-148.15;100.00;61821.78;4973404;28;20022;-89
2023/08/20 06:49:06;;;;;;;15.07;5.43;;;;;;;-148.15;100.00;61821.78;4973027;28;20074;-89
2023/08/20 06:51:31;;;;;;;15.60;5.37;;;;;;;-148.15;100.00;61821.78;4955422;28;20312;-90
2023/08/20 06:53:56;;;;;;;20.20;5.20;;;;;;;-148.15;100.00;61821.78;4972133;28;20061;-88
2023/08/20 07:04:15;;;;;;;10.93;5.30;;;;;;;-148.15;100.00;61821.78;5632120;23;20991;-96
2023/08/20 07:12:17;;;;;;;13.30;5.43;;;;;;;-148.15;100.00;61821.78;5149277;23;20068;-96
2023/08/20 07:22:20;;;;;;;15.45;5.55;;;;;;;-148.15;100.00;61821.78;5105558;23;20046;-96
2023/08/20 07:24:46;;;;;;;14.82;5.07;;;;;;;-148.15;100.00;61821.78;4997529;28;20090;-96
2023/08/20 07:27:12;;;;;;;11.80;5.60;;;;;;;-148.15;100.00;61821.78;5387995;23;20028;-96
2023/08/20 07:29:38;;;;;;;15.50;5.72;;;;;;;-148.15;100.00;61821.78;5010586;28;20047;-95
2023/08/20 07:32:03;;;;;;;11.15;5.60;;;;;;;-148.15;100.00;61821.78;4979237;28;20010;-95
2023/08/20 07:34:30;;;;;;;12.63;5.40;;;;;;;-148.15;100.00;61821.78;4987105;28;20037;-86
2023/08/20 07:36:56;;;;;;;11.85;5.38;;;;;;;-148.15;100.00;61821.78;4986874;28;20551;-84
2023/08/20 07:39:22;;;;;;;14.50;5.20;;;;;;;-148.15;100.00;61821.78;4988045;28;20030;-84
2023/08/20 07:41:47;;;;;;;10.33;4.53;;;;;;;-148.15;100.00;61821.78;4987194;28;20037;-84
2023/08/20 07:44:12;;;;;;;10.82;5.15;;;;;;;-148.15;100.00;61821.78;4991020;28;20088;-83
2023/08/20 07:46:38;;;;;;;9.63;4.33;;;;;;;-148.15;100.00;61821.78;4984969;28;20105;-84
2023/08/20 07:49:03;;;;;;;10.33;4.00;;;;;;;-148.15;100.00;61821.78;4984264;28;20077;-86
2023/08/20 07:51:29;;;;;;;12.47;3.90;;;;;;;-148.15;100.00;61821.78;4990308;28;20026;-86
2023/08/20 07:53:54;;;;;;;12.15;3.88;;;;;;;-148.15;100.00;61821.78;4972288;28;20518;-86
2023/08/20 07:56:20;;;;;;;11.50;4.00;;;;;;;-148.15;100.00;61821.78;4991042;28;20378;-86
2023/08/20 07:58:45;;;;;;;11.13;4.10;;;;;;;-148.15;100.00;61821.78;4989719;28;20038;-84
2023/08/20 08:01:10;;;;;;;11.77;4.75;;;;;;;-148.15;100.00;61821.78;4988549;28;20066;-85
2023/08/20 08:03:36;;;;;;;7.20;3.40;;;;;;;-148.15;100.00;61821.78;4986297;28;20073;-85
2023/08/20 08:06:01;;;;;;;11.17;3.03;;;;;;;-148.15;100.00;61821.78;4991617;28;20390;-86
2023/08/20 08:08:26;;;;;;;8.33;3.80;;;;;;;-148.15;100.00;61821.78;4985020;28;20042;-86
2023/08/20 08:10:52;;;;;;;6.87;3.57;;;;;;;-148.15;100.00;61821.78;4991063;28;20406;-86
2023/08/20 08:13:21;;;;;;;11.93;3.63;;;;;;;-148.15;100.00;61821.78;4989755;28;20073;-86
2023/08/20 08:15:48;;;;;;;9.57;4.10;;;;;;;-148.15;100.00;61821.78;4991043;28;20229;-87
2023/08/20 08:18:13;;;;;;;8.00;3.73;;;;;;;-148.15;100.00;61821.78;4989627;28;20298;-87
2023/08/20 08:20:38;;;;;;;7.78;3.10;;;;;;;-148.15;100.00;61821.78;4992701;28;20019;-89
2023/08/20 08:23:04;;;;;;;6.67;3.30;;;;;;;-148.15;100.00;61821.78;4989347;28;20034;-88
2023/08/20 08:25:29;;;;;;;5.47;3.13;;;;;;;-148.15;100.00;61821.78;4993641;28;20482;-88
2023/08/20 08:27:55;;;;;;;7.00;3.65;;;;;;;-148.15;100.00;61821.78;4990126;28;20034;-86
2023/08/20 08:30:20;;;;;;;11.33;3.80;;;;;;;-148.15;100.00;61821.78;4989842;28;20041;-86
2023/08/20 08:32:46;;;;;;;6.73;4.20;;;;;;;-148.15;100.00;61821.78;4990188;28;20029;-87
2023/08/20 08:35:11;;;;;;;7.05;3.38;;;;;;;-148.15;100.00;61821.78;4993123;28;20073;-88
2023/08/20 08:37:37;;;;;;;5.70;3.00;;;;;;;-148.15;100.00;61821.78;4997086;28;20064;-89
2023/08/20 08:40:06;;;;;;;10.87;3.40;;;;;;;-148.15;100.00;61821.78;4989899;28;20030;-88
2023/08/20 08:42:32;;;;;;;10.10;3.25;;;;;;;-148.15;100.00;61821.78;4993407;28;20050;-87
2023/08/20 08:45:00;;;;;;;8.77;3.28;;;;;;;-148.15;100.00;61821.78;4986028;28;20081;-89
2023/08/20 08:47:25;;;;;;;8.75;3.08;;;;;;;-148.15;100.00;61821.78;4973808;28;20026;-88
2023/08/20 08:49:52;;;;;;;7.17;2.77;;;;;;;-148.15;100.00;61821.78;4990421;28;20037;-88
2023/08/20 08:52:19;;;;;;;5.90;3.10;;;;;;;-148.15;100.00;61821.78;4987768;28;20804;-85
2023/08/20 08:54:46;;;;;;;4.45;2.83;;;;;;;-148.15;100.00;61821.78;4989458;28;20026;-86
2023/08/20 08:57:12;;;;;;;7.75;2.65;;;;;;;-148.15;100.00;61821.78;4988325;28;20576;-85
2023/08/20 08:59:37;;;;;;;6.82;2.05;;;;;;;-148.15;100.00;61821.78;4972873;28;20065;-84
2023/08/20 09:02:09;;;;;;;6.57;2.20;;;;;;;-148.15;100.00;61821.78;4990309;28;20030;-86
2023/08/20 09:04:37;;;;;;;3.72;2.30;;;;;;;-148.15;100.00;61821.78;4990715;28;20034;-85
2023/08/20 09:07:03;;;;;;;8.15;2.92;;;;;;;-148.15;100.00;61821.78;4993611;28;20040;-87
2023/08/20 09:09:29;;;;;;;8.63;4.40;;;;;;;-148.15;100.00;61821.78;4992777;28;20030;-87
2023/08/20 09:11:54;;;;;;;7.38;2.72;;;;;;;-148.15;100.00;61821.78;4989127;28;20030;-87
2023/08/20 09:14:22;;;;;;;7.50;2.40;;;;;;;-148.15;100.00;61821.78;4994313;28;20025;-87
2023/08/20 09:16:54;;;;;;;4.38;2.00;;;;;;;-148.15;100.00;61821.78;4992700;28;20034;-87
2023/08/20 09:19:19;;;;;;;4.00;1.92;;;;;;;-148.15;100.00;61821.78;4992131;28;20022;-87
2023/08/20 09:21:49;;;;;;;2.73;1.80;;;;;;;-148.15;100.00;61821.78;4993461;28;20027;-85
2023/08/20 09:24:14;;;;;;;5.78;1.75;;;;;;;-148.15;100.00;61821.78;4994297;28;20026;-86
2023/08/20 09:26:45;;;;;;;5.53;1.83;;;;;;;-148.15;100.00;61821.78;4993898;28;20037;-87
2023/08/20 09:29:10;;;;;;;4.93;1.80;;;;;;;-148.15;100.00;61821.78;4989665;28;20391;-85
2023/08/20 09:31:39;;;;;;;4.87;2.20;;;;;;;-148.15;100.00;61821.78;4991137;28;20336;-86
2023/08/20 09:34:05;;;;;;;3.65;1.83;;;;;;;-148.15;100.00;61821.78;4981003;28;20050;-86
2023/08/20 09:36:35;;;;;;;5.30;1.80;;;;;;;-148.15;100.00;61821.78;4995412;28;20351;-85
2023/08/20 09:39:03;;;;;;;4.45;1.60;;;;;;;-148.15;100.00;61821.78;4993076;28;20030;-86
2023/08/20 09:41:30;;;;;;;4.47;1.80;;;;;;;-148.15;100.00;61821.78;4991738;28;20038;-89
2023/08/20 09:43:58;;;;;;;3.53;2.03;;;;;;;-148.15;100.00;61821.78;4995975;28;20045;-89
2023/08/20 09:46:27;;;;;;;3.97;1.80;;;;;;;-148.15;100.00;61821.78;4995574;28;20026;-86
2023/08/20 09:48:55;;;;;;;3.30;2.20;;;;;;;-148.15;100.00;61821.78;4996489;28;20045;-86
2023/08/20 09:51:26;;;;;;;4.43;2.28;;;;;;;-148.15;100.00;61821.78;4994087;28;20053;-85
2023/08/20 09:54:19;;;;;;;3.55;2.03;;;;;;;-148.15;100.00;61821.78;4995338;28;20659;-85
2023/08/20 09:56:51;;;;;;;4.00;2.10;;;;;;;-148.15;100.00;61821.78;4989379;28;20018;-85
2023/08/20 09:59:17;;;;;;;4.22;1.85;;;;;;;-148.15;100.00;61821.78;4983839;28;20030;-86
2023/08/20 10:01:42;;;;;;;4.27;2.30;;;;;;;-148.15;100.00;61821.78;4992865;28;20027;-84
2023/08/20 10:04:09;;;;;;;3.17;1.85;;;;;;;-148.15;100.00;61821.78;4993472;28;20109;-86
2023/08/20 10:06:36;;;;;;;2.47;1.70;;;;;;;-148.15;100.00;61821.78;4992880;28;20022;-85
2023/08/20 10:09:02;;;;;;;3.93;1.77;;;;;;;-148.15;100.00;61821.78;4992559;28;20080;-86
2023/08/20 10:11:28;;;;;;;6.30;1.83;;;;;;;-148.15;100.00;61821.78;4979488;28;20369;-87
2023/08/20 10:13:53;;;;;;;3.15;1.60;;;;;;;-148.15;100.00;61821.78;4978960;28;20502;-86
2023/08/20 10:16:21;;;;;;;4.30;1.87;;;;;;;-148.15;100.00;61821.78;4987029;28;20038;-86
2023/08/20 10:18:48;;;;;;;3.03;1.27;;;;;;;-148.15;100.00;61821.78;4988554;28;20069;-85
2023/08/20 10:21:13;;;;;;;2.60;1.13;;;;;;;-148.15;100.00;61821.78;4989762;28;20026;-85
2023/08/20 10:23:44;;;;;;;3.53;1.13;;;;;;;-148.15;100.00;61821.78;4991103;28;20038;-85
2023/08/20 10:26:10;;;;;;;1.48;1.00;;;;;;;-148.15;100.00;61821.78;4987875;28;20057;-86
2023/08/20 10:28:36;;;;;;;2.80;1.20;;;;;;;-148.15;100.00;61821.78;4980524;28;20061;-88
2023/08/20 10:31:16;;;;;;;2.50;1.20;;;;;;;-148.15;100.00;61821.78;4991364;28;20029;-85
2023/08/20 10:33:52;;;;;;;1.98;1.10;;;;;;;-148.15;100.00;61821.78;4992469;28;20057;-87
2023/08/20 10:36:25;;;;;;;2.13;1.25;;;;;;;-148.15;100.00;61821.78;4991972;28;20026;-83
2023/08/20 10:38:55;;;;;;;3.97;1.25;;;;;;;-148.15;100.00;61821.78;4980329;28;20490;-93
2023/08/20 10:41:28;;;;;;;1.88;1.27;;;;;;;-148.15;100.00;61821.78;4984279;28;20054;-95
2023/08/20 10:43:57;;;;;;;4.10;1.40;;;;;;;-148.15;100.00;61821.78;4990692;28;20030;-93
2023/08/20 10:46:25;;;;;;;2.40;1.30;;;;;;;-148.15;100.00;61821.78;4990138;28;20034;-93
2023/08/20 10:48:51;;;;;;;2.10;1.33;;;;;;;-148.15;100.00;61821.78;4975925;28;20030;-94
2023/08/20 10:51:17;;;;;;;2.50;1.30;;;;;;;-148.15;100.00;61821.78;4981519;28;20043;-93
2023/08/20 10:54:05;;;;;;;1.95;1.20;;;;;;;-148.15;100.00;61821.78;4992295;28;20065;-94
2023/08/20 10:56:58;;;;;;;3.05;1.27;;;;;;;-148.15;100.00;61821.78;4994534;28;20035;-95
2023/08/20 10:59:31;;;;;;;4.03;1.67;;;;;;;-148.15;100.00;61821.78;4994420;28;20022;-94
2023/08/20 11:01:59;;;;;;;3.03;1.40;;;;;;;-148.15;100.00;61821.78;4995546;28;20647;-94
2023/08/20 11:04:29;;;;;;;5.38;2.63;;;;;;;-148.15;100.00;61821.78;4997609;28;20058;-92
2023/08/20 11:06:56;;;;;;;3.67;1.50;;;;;;;-148.15;100.00;61821.78;4999803;28;20084;-94
2023/08/20 11:09:23;;;;;;;2.83;1.45;;;;;;;-148.15;100.00;61821.78;5016538;28;20031;-94
2023/08/20 11:11:48;;;;;;;4.78;3.20;;;;;;;-148.15;100.00;61821.78;4978908;28;20076;-92
2023/08/20 11:14:14;;;;;;;3.17;1.50;;;;;;;-148.15;100.00;61821.78;4971542;28;20019;-92
2023/08/20 11:16:41;;;;;;;4.63;3.15;;;;;;;-148.15;100.00;61821.78;5012616;28;20088;-93
2023/08/20 11:19:09;;;;;;;5.18;2.47;;;;;;;-148.15;100.00;61821.78;5018156;28;20029;-92
2023/08/20 11:21:38;;;;;;;3.60;2.50;;;;;;;-148.15;100.00;61821.78;4999998;28;20026;-93
2023/08/20 11:24:05;;;;;;;3.83;1.70;;;;;;;-148.15;100.00;61821.78;5047330;23;20018;-93
2023/08/20 11:26:30;;;;;;;5.25;2.38;;;;;;;-148.15;100.00;61821.78;5037263;28;20018;-94